createdAt,value
2023-05-08T00:04:15.268Z,101717.98
2023-05-08T00:09:19.838Z,101720.98
2023-05-08T00:14:26.175Z,101722.26
2023-05-08T00:19:29.538Z,101723.92
2023-05-08T00:24:32.738Z,101726.46
2023-05-08T00:29:36.104Z,101729.72
2023-05-08T00:34:39.437Z,101730.80
2023-05-08T00:39:43.057Z,101734.39
2023-05-08T00:44:46.439Z,101738.48
2023-05-08T00:49:49.933Z,101740.14
2023-05-08T00:54:54.153Z,101742.73
2023-05-08T00:59:59.586Z,101747.34
2023-05-08T01:05:04.022Z,101756.29
2023-05-08T01:10:08.278Z,101761.33
2023-05-08T01:15:16.995Z,101771.84
2023-05-08T01:20:45.467Z,101774.59
2023-05-08T01:25:57.644Z,101770.30
2023-05-08T01:31:39.302Z,101776.29
2023-05-08T01:36:50.786Z,101780.85
2023-05-08T01:42:19.416Z,101778.95
2023-05-08T01:47:29.208Z,101780.60
2023-05-08T01:52:47.536Z,101782.55
2023-05-08T01:57:54.581Z,101783.60
2023-05-08T02:02:59.375Z,101786.29
2023-05-08T02:08:04.316Z,101789.69
2023-05-08T02:13:10.379Z,101787.42
2023-05-08T02:18:20.879Z,101793.44
2023-05-08T02:23:26.839Z,101799.01
2023-05-08T02:28:41.554Z,101795.77
2023-05-08T02:33:45.859Z,101799.59
2023-05-08T02:38:56.868Z,101799.25
2023-05-08T02:44:00.382Z,101798.84
2023-05-08T02:49:08.691Z,101798.19
2023-05-08T02:54:23.157Z,101797.11
2023-05-08T02:59:37.871Z,101799.54
2023-05-08T03:04:51.625Z,101804.80
2023-05-08T03:10:03.272Z,101808.05
2023-05-08T03:15:17.513Z,101810.54
2023-05-08T03:20:22.727Z,101815.58
2023-05-08T03:25:27.864Z,101818.35
2023-05-08T03:30:32.322Z,101823.77
2023-05-08T03:35:40.268Z,101829.06
2023-05-08T03:40:46.510Z,101829.20
2023-05-08T03:45:51.544Z,101830.33
2023-05-08T03:50:56.071Z,101827.38
2023-05-08T03:56:03.176Z,101817.81
2023-05-08T04:01:40.098Z,101820.73
2023-05-08T04:06:52.695Z,101824.54
2023-05-08T04:12:21.127Z,101828.44
2023-05-08T04:18:09.136Z,101838.30
2023-05-08T04:23:17.573Z,101849.48
2023-05-08T04:28:22.714Z,101853.51
2023-05-08T04:33:26.905Z,101854.27
2023-05-08T04:38:30.579Z,101854.83
2023-05-08T04:43:35.152Z,101860.59
2023-05-08T04:48:38.827Z,101864.91
2023-05-08T04:53:43.140Z,101870.86
2023-05-08T04:58:46.797Z,101870.18
2023-05-08T05:03:50.916Z,101871.45
2023-05-08T05:08:55.099Z,101877.30
2023-05-08T05:13:58.550Z,101876.11
2023-05-08T05:19:02.055Z,101881.70
2023-05-08T05:24:06.947Z,101885.54
2023-05-08T05:29:10.357Z,101888.90
2023-05-08T05:34:14.113Z,101886.42
2023-05-08T05:39:17.648Z,101891.65
2023-05-08T05:44:21.226Z,101890.13
2023-05-08T05:49:24.747Z,101897.31
2023-05-08T05:54:28.162Z,101901.23
2023-05-08T05:59:32.171Z,101903.98
2023-05-08T06:04:36.508Z,101897.96
2023-05-08T06:09:44.927Z,101901.13
2023-05-08T06:14:48.726Z,101904.27
2023-05-08T06:19:56.099Z,101906.42
2023-05-08T06:25:00.015Z,101907.59
2023-05-08T06:30:04.869Z,101904.83
2023-05-08T06:35:08.748Z,101905.77
2023-05-08T06:40:13.055Z,101906.76
2023-05-08T06:45:16.552Z,101902.67
2023-05-08T06:50:20.427Z,101899.22
2023-05-08T06:55:23.990Z,101897.61
2023-05-08T07:00:27.452Z,101899.02
2023-05-08T07:05:30.740Z,101900.84
2023-05-08T07:10:34.462Z,101897.13
2023-05-08T07:15:39.152Z,101900.60
2023-05-08T07:20:42.519Z,101904.27
2023-05-08T07:25:46.183Z,101908.14
2023-05-08T07:30:49.838Z,101909.70
2023-05-08T07:35:53.180Z,101909.59
2023-05-08T07:41:01.625Z,101910.51
2023-05-08T07:46:06.041Z,101909.77
2023-05-08T07:51:11.378Z,101912.95
2023-05-08T07:56:23.802Z,101907.41
2023-05-08T08:01:27.495Z,101906.91
2023-05-08T08:06:30.852Z,101906.34
2023-05-08T08:11:34.162Z,101903.11
2023-05-08T08:16:37.503Z,101905.45
2023-05-08T08:21:44.107Z,101905.73
2023-05-08T08:26:47.534Z,101895.53
2023-05-08T08:31:50.844Z,101889.08
2023-05-08T08:37:14.340Z,101888.63
2023-05-08T08:42:17.849Z,101889.48
2023-05-08T08:47:27.098Z,101879.69
2023-05-08T08:52:51.499Z,101875.23
2023-05-08T08:57:57.660Z,101874.15
2023-05-08T09:03:01.257Z,101875.37
2023-05-08T09:08:06.062Z,101872.40
2023-05-08T09:13:09.418Z,101870.70
2023-05-08T09:18:13.004Z,101867.48
2023-05-08T09:23:17.627Z,101863.98
2023-05-08T09:28:25.709Z,101859.05
2023-05-08T09:33:30.872Z,101855.81
2023-05-08T09:38:36.239Z,101860.67
2023-05-08T09:43:39.720Z,101856.17
2023-05-08T09:48:42.941Z,101857.15
2023-05-08T09:53:52.334Z,101855.72
2023-05-08T09:58:55.716Z,101852.77
2023-05-08T10:03:59.908Z,101852.13
2023-05-08T10:09:14.405Z,101850.64
2023-05-08T10:14:18.625Z,101843.94
2023-05-08T10:19:28.437Z,101836.09
2023-05-08T10:24:33.924Z,101831.09
2023-05-08T10:29:56.088Z,101826.58
2023-05-08T10:35:00.782Z,101824.24
2023-05-08T10:40:06.797Z,101823.24
2023-05-08T10:45:22.621Z,101825.05
2023-05-08T10:50:59.067Z,101819.98
2023-05-08T10:56:02.987Z,101818.20
2023-05-08T11:01:09.573Z,101816.34
2023-05-08T11:06:15.385Z,101813.71
2023-05-08T11:11:33.592Z,101811.59
2023-05-08T11:16:56.785Z,101803.23
2023-05-08T11:22:16.548Z,101791.35
2023-05-08T11:27:51.338Z,101788.13
2023-05-08T11:33:04.030Z,101783.48
2023-05-08T11:38:38.664Z,101777.06
2023-05-08T11:44:09.552Z,101776.61
2023-05-08T11:49:16.989Z,101770.02
2023-05-08T11:54:22.033Z,101770.10
2023-05-08T11:59:26.106Z,101772.11
2023-05-08T12:04:44.503Z,101770.14
2023-05-08T12:09:48.294Z,101767.23
2023-05-08T12:14:52.098Z,101758.25
2023-05-08T12:19:56.639Z,101753.45
2023-05-08T12:25:00.272Z,101754.41
2023-05-08T12:30:09.466Z,101753.36
2023-05-08T12:35:24.932Z,101752.10
2023-05-08T12:40:45.435Z,101746.41
2023-05-08T12:45:52.763Z,101744.91
2023-05-08T12:51:02.438Z,101742.66
2023-05-08T12:56:06.515Z,101735.35
2023-05-08T13:01:13.543Z,101729.04
2023-05-08T13:06:30.216Z,101720.38
2023-05-08T13:11:34.463Z,101719.61
2023-05-08T13:16:52.007Z,101717.51
2023-05-08T13:21:55.561Z,101712.97
2023-05-08T13:26:58.805Z,101712.63
2023-05-08T13:32:02.162Z,101714.86
2023-05-08T13:37:05.587Z,101705.59
2023-05-08T13:42:08.854Z,101704.14
2023-05-08T13:47:12.050Z,101696.77
2023-05-08T13:52:15.316Z,101687.96
2023-05-08T13:57:18.628Z,101681.36
2023-05-08T14:02:22.278Z,101682.36
2023-05-08T14:07:26.349Z,101681.81
2023-05-08T14:12:29.853Z,101686.33
2023-05-08T14:17:33.252Z,101680.70
2023-05-08T14:22:36.690Z,101676.84
2023-05-08T14:27:40.225Z,101672.91
2023-05-08T14:32:43.623Z,101676.20
2023-05-08T14:37:46.919Z,101672.44
2023-05-08T14:42:50.264Z,101674.83
2023-05-08T14:47:53.642Z,101670.34
2023-05-08T14:52:57.185Z,101668.92
2023-05-08T14:58:00.971Z,101671.58
2023-05-08T15:03:04.305Z,101668.02
2023-05-08T15:08:08.685Z,101668.01
2023-05-08T15:13:12.003Z,101671.58
2023-05-08T15:18:15.419Z,101675.36
2023-05-08T15:23:21.136Z,101672.38
2023-05-08T15:28:24.775Z,101677.00
2023-05-08T15:33:28.148Z,101674.79
2023-05-08T15:38:31.395Z,101675.41
2023-05-08T15:43:34.620Z,101667.41
2023-05-08T15:48:37.965Z,101666.61
2023-05-08T15:53:41.515Z,101659.92
2023-05-08T15:58:45.012Z,101654.80
2023-05-08T16:03:48.454Z,101651.21
2023-05-08T16:08:52.480Z,101651.20
2023-05-08T16:13:55.962Z,101649.08
2023-05-08T16:18:59.514Z,101654.10
2023-05-08T16:24:08.731Z,101652.14
2023-05-08T16:29:12.489Z,101651.30
2023-05-08T16:34:16.257Z,101654.73
2023-05-08T16:39:19.870Z,101653.98
2023-05-08T16:44:23.287Z,101650.77
2023-05-08T16:49:27.124Z,101649.59
2023-05-08T16:54:30.971Z,101650.55
2023-05-08T16:59:34.228Z,101648.42
2023-05-08T17:04:38.016Z,101657.61
2023-05-08T17:09:53.113Z,101658.72
2023-05-08T17:14:57.135Z,101659.46
2023-05-08T17:20:00.337Z,101663.62
2023-05-08T17:25:03.824Z,101663.03
2023-05-08T17:30:08.830Z,101662.45
2023-05-08T17:35:12.251Z,101662.79
2023-05-08T17:40:16.518Z,101661.91
2023-05-08T17:45:45.125Z,101665.20
2023-05-08T17:50:54.007Z,101671.87
2023-05-08T17:55:57.917Z,101673.91
2023-05-08T18:01:38.431Z,101682.04
2023-05-08T18:07:33.335Z,101686.73
2023-05-08T18:13:04.416Z,101684.80
2023-05-08T18:18:07.940Z,101694.60
2023-05-08T18:23:11.468Z,101695.77
2023-05-08T18:28:14.770Z,101700.79
2023-05-08T18:33:18.233Z,101707.87
2023-05-08T18:38:37.061Z,101715.22
2023-05-08T18:43:41.749Z,101716.47
2023-05-08T18:48:45.185Z,101716.12
2023-05-08T18:53:48.575Z,101727.28
2023-05-08T18:58:55.191Z,101731.79
2023-05-08T19:04:19.893Z,101733.61
2023-05-08T19:09:26.054Z,101739.83
2023-05-08T19:20:09.410Z,101751.11
2023-05-08T19:25:37.260Z,101752.56
2023-05-08T19:31:22.921Z,101749.80
2023-05-08T19:36:38.838Z,101753.31
2023-05-08T19:42:02.978Z,101750.02
2023-05-08T19:47:06.991Z,101747.41
2023-05-08T19:52:10.569Z,101744.80
2023-05-08T19:57:14.036Z,101746.33
2023-05-08T20:03:01.489Z,101742.14
2023-05-08T20:14:46.329Z,101734.08
2023-05-08T20:19:50.230Z,101733.36
2023-05-08T20:24:53.878Z,101729.84
2023-05-08T20:30:17.774Z,101726.34
2023-05-08T20:42:02.775Z,101728.40
2023-05-08T20:47:09.193Z,101730.28
2023-05-08T20:52:12.635Z,101730.60
2023-05-08T20:57:17.976Z,101731.23
2023-05-08T21:02:21.426Z,101725.60
2023-05-08T21:07:24.778Z,101726.77
2023-05-08T21:12:28.045Z,101721.21
2023-05-08T21:17:31.455Z,101725.16
2023-05-08T21:22:34.924Z,101722.99
2023-05-08T21:27:50.082Z,101721.36
2023-05-08T21:32:53.613Z,101720.14
2023-05-08T21:37:57.158Z,101717.69
2023-05-08T21:43:01.386Z,101720.41
2023-05-08T21:48:05.185Z,101719.47
2023-05-08T21:53:08.546Z,101717.43
2023-05-08T21:58:11.843Z,101722.73
2023-05-08T22:03:15.415Z,101725.13
2023-05-08T22:08:18.839Z,101720.67
2023-05-08T22:13:22.433Z,101719.77
2023-05-08T22:18:26.148Z,101718.00
2023-05-08T22:23:29.370Z,101720.91
2023-05-08T22:28:32.895Z,101717.08
2023-05-08T22:33:36.951Z,101712.16
2023-05-08T22:38:43.442Z,101709.83
2023-05-08T22:43:46.990Z,101710.36
2023-05-08T22:48:52.954Z,101716.66
2023-05-08T22:53:57.058Z,101716.64
2023-05-08T22:59:00.512Z,101710.91
2023-05-08T23:04:03.964Z,101709.68
2023-05-08T23:09:07.483Z,101713.50
2023-05-08T23:14:10.889Z,101710.00
2023-05-08T23:19:14.487Z,101713.34
2023-05-08T23:24:19.264Z,101711.27
2023-05-08T23:29:23.620Z,101712.52
2023-05-08T23:34:29.465Z,101707.59
2023-05-08T23:39:37.866Z,101708.98
2023-05-08T23:45:01.391Z,101707.38
2023-05-08T23:50:05.458Z,101703.65
2023-05-08T23:55:12.173Z,101707.56
